Flight Track Log - Related Links

Times and Time Zones

All times are in EDT time to prevent confusion due to time zone crossing. See the N516QS flight status page for this flight to view local times or setup timezone preferences in your user account.

Time Position Orientation Groundspeed Altitude Reporting Facility
EDT Latitude Longitude Course Direction KTS MPH feet Rate Location/Type
Wed 08:12:00 AM 54.1206 -16.7089 305° West  Level Estimated
Wed 08:13:00 AM 54.1337 -16.9195 276° West  Level Estimated
Wed 08:14:00 AM 54.1464 -17.1302 276° West  Level Estimated
Wed 08:15:00 AM 54.1587 -17.3410 276° West  Level Estimated
Wed 08:16:00 AM 54.1706 -17.5520 276° West  Level Estimated
Wed 08:17:00 AM 54.1822 -17.7631 275° West  Level Estimated
Wed 08:18:00 AM 54.1934 -17.9743 275° West  Level Estimated
Wed 08:19:00 AM 54.2042 -18.1856 275° West  Level Estimated
Wed 08:20:00 AM 54.2147 -18.3970 275° West  Level Estimated
Wed 08:21:00 AM 54.2248 -18.6085 275° West  Level Estimated
Wed 08:22:00 AM 54.2345 -18.8201 275° West  Level Estimated
Wed 08:23:00 AM 54.2439 -19.0319 274° West  Level Estimated
Wed 08:24:00 AM 54.2528 -19.2437 274° West  Level Estimated
Wed 08:25:00 AM 54.2615 -19.4556 274° West  Level Estimated
Wed 08:26:00 AM 54.2697 -19.6676 274° West  Level Estimated
Wed 08:27:00 AM 54.2776 -19.8797 274° West  Level Estimated
Wed 08:28:00 AM 54.2851 -20.0918 274° West  Level Estimated
Wed 08:29:00 AM 54.2922 -20.3040 273° West  Level Estimated
Wed 08:30:00 AM 54.2989 -20.5163 273° West  Level Estimated
Wed 08:31:00 AM 54.3053 -20.7287 273° West  Level Estimated
Wed 08:32:00 AM 54.3113 -20.9411 273° West  Level Estimated
Wed 08:32:00 AM 57.0000 -20.0000 285° West 457 526 43,000  Level ETMS Enhanced Traffic Management System
Wed 08:33:00 AM 54.3169 -21.1536 273° West  Level Estimated
Wed 08:34:00 AM 54.3222 -21.3662 273° West  Level Estimated
Wed 08:35:00 AM 54.3271 -21.5788 272° West  Level Estimated
Wed 08:36:00 AM 54.3316 -21.7914 272° West  Level Estimated
Wed 08:37:00 AM 54.3357 -22.0041 272° West  Level Estimated
Wed 08:38:00 AM 57.2161 -21.5876 283° West 457 526 43,000  Level FlightAware Transoceanic
Wed 08:39:00 AM 57.2453 -21.8159 283° West 457 526 43,000  Level FlightAware Transoceanic
Wed 08:40:00 AM 57.2741 -22.0446 283° West 457 526 43,000  Level FlightAware Transoceanic
Wed 08:41:00 AM 57.3025 -22.2736 283° West 457 526 43,000  Level FlightAware Transoceanic
Wed 08:42:00 AM 57.3305 -22.5030 283° West 457 526 43,000  Level FlightAware Transoceanic
Wed 08:43:00 AM 57.3581 -22.7327 282° West 457 526 43,000  Level FlightAware Transoceanic
Wed 08:44:00 AM 57.3852 -22.9627 282° West 457 526 43,000  Level FlightAware Transoceanic
Wed 08:45:00 AM 57.4119 -23.1931 282° West 457 526 43,000  Level FlightAware Transoceanic
Wed 08:46:00 AM 57.4383 -23.4238 282° West 457 526 43,000  Level FlightAware Transoceanic
Wed 08:47:00 AM 57.4641 -23.6549 282° West 457 526 43,000  Level FlightAware Transoceanic
Wed 08:48:00 AM 57.4896 -23.8862 281° West 457 526 43,000  Level FlightAware Transoceanic
Wed 08:49:00 AM 57.5146 -24.1179 281° West 457 526 43,000  Level FlightAware Transoceanic
Wed 08:50:00 AM 57.5392 -24.3500 281° West 457 526 43,000  Level FlightAware Transoceanic
Wed 08:51:00 AM 57.5634 -24.5823 281° West 457 526 43,000  Level FlightAware Transoceanic
Wed 08:52:00 AM 57.5872 -24.8149 281° West 457 526 43,000  Level FlightAware Transoceanic
Wed 08:53:00 AM 57.6105 -25.0478 280° West 457 526 43,000  Level FlightAware Transoceanic
Wed 08:54:00 AM 57.6334 -25.2811 280° West 457 526 43,000  Level FlightAware Transoceanic
Wed 08:55:00 AM 57.6559 -25.5146 280° West 457 526 43,000  Level FlightAware Transoceanic
Wed 08:56:00 AM 57.6779 -25.7484 280° West 457 526 43,000  Level FlightAware Transoceanic
Wed 08:57:00 AM 57.6995 -25.9825 280° West 457 526 43,000  Level FlightAware Transoceanic
Wed 08:58:00 AM 57.7207 -26.2168 280° West 457 526 43,000  Level FlightAware Transoceanic
Wed 08:59:00 AM 57.7414 -26.4515 279° West 457 526 43,000  Level FlightAware Transoceanic
Wed 09:00:00 AM 57.7617 -26.6864 279° West 457 526 43,000  Level FlightAware Transoceanic
Wed 09:01:00 AM 57.7816 -26.9215 279° West 457 526 43,000  Level FlightAware Transoceanic
Wed 09:02:00 AM 57.8010 -27.1569 279° West 457 526 43,000  Level FlightAware Transoceanic
Wed 09:03:00 AM 57.8200 -27.3926 279° West 457 526 43,000  Level FlightAware Transoceanic
Wed 09:04:00 AM 57.8386 -27.6285 278° West 457 526 43,000  Level FlightAware Transoceanic
Wed 09:05:00 AM 57.8567 -27.8647 278° West 457 526 43,000  Level FlightAware Transoceanic
Wed 09:06:00 AM 57.8744 -28.1011 278° West 457 526 43,000  Level FlightAware Transoceanic
Wed 09:07:00 AM 57.8917 -28.3377 278° West 457 526 43,000  Level FlightAware Transoceanic
Wed 09:08:00 AM 57.9085 -28.5745 278° West 457 526 43,000  Level FlightAware Transoceanic
Wed 09:09:00 AM 57.9248 -28.8116 277° West 457 526 43,000  Level FlightAware Transoceanic
Wed 09:10:00 AM 57.9407 -29.0489 277° West 457 526 43,000  Level FlightAware Transoceanic
Wed 09:11:00 AM 57.9562 -29.2864 277° West 457 526 43,000  Level FlightAware Transoceanic
Wed 09:12:00 AM 57.9713 -29.5240 277° West 457 526 43,000  Level FlightAware Transoceanic
Wed 09:13:00 AM 57.9859 -29.7619 276° West 457 526 43,000  Level FlightAware Transoceanic
Wed 09:14:00 AM 57.9997 -29.9946 276° West  Level FlightAware Approximate
Wed 09:15:00 AM 58.0132 -30.2274 276° West  Level FlightAware Approximate
Wed 09:15:00 AM 58.0000 -30.0000 264° West 457 526 43,000  Level ETMS Enhanced Traffic Management System
Wed 09:16:00 AM 57.9868 -30.2218 264° West  Level FlightAware Approximate
Wed 09:17:00 AM 57.9726 -30.4543 264° West  Level FlightAware Approximate
Wed 09:18:00 AM 57.9580 -30.6866 263° West  Level FlightAware Approximate
Wed 09:19:00 AM 57.9429 -30.9187 263° West  Level FlightAware Approximate
Wed 09:20:00 AM 57.9274 -31.1506 263° West  Level FlightAware Approximate
Wed 09:21:00 AM 57.8567 -32.1353 262° West 457 526 43,000  Level FlightAware Transoceanic
Wed 09:22:00 AM 57.8386 -32.3715 262° West 457 526 43,000  Level FlightAware Transoceanic
Wed 09:23:00 AM 57.8200 -32.6074 261° West 457 526 43,000  Level FlightAware Transoceanic
Wed 09:24:00 AM 57.8010 -32.8430 261° West 457 526 43,000  Level FlightAware Transoceanic
Wed 09:25:00 AM 57.7816 -33.0785 261° West 457 526 43,000  Level FlightAware Transoceanic
Wed 09:26:00 AM 57.7617 -33.3136 261° West 457 526 43,000  Level FlightAware Transoceanic
Wed 09:27:00 AM 57.7414 -33.5485 261° West 457 526 43,000  Level FlightAware Transoceanic
Wed 09:28:00 AM 57.7207 -33.7832 260° West 457 526 43,000  Level FlightAware Transoceanic
Wed 09:29:00 AM 57.6995 -34.0175 260° West 457 526 43,000  Level FlightAware Transoceanic
Wed 09:30:00 AM 57.6779 -34.2516 260° West 457 526 43,000  Level FlightAware Transoceanic
Wed 09:31:00 AM 57.6559 -34.4854 260° West 457 526 43,000  Level FlightAware Transoceanic
Wed 09:32:00 AM 57.6334 -34.7189 260° West 457 526 43,000  Level FlightAware Transoceanic
Wed 09:33:00 AM 57.6105 -34.9522 260° West 457 526 43,000  Level FlightAware Transoceanic
Wed 09:34:00 AM 57.5872 -35.1851 259° West 457 526 43,000  Level FlightAware Transoceanic
Wed 09:35:00 AM 57.5634 -35.4177 259° West 457 526 43,000  Level FlightAware Transoceanic
Wed 09:36:00 AM 57.5392 -35.6500 259° West 457 526 43,000  Level FlightAware Transoceanic
Wed 09:37:00 AM 57.5146 -35.8821 259° West 457 526 43,000  Level FlightAware Transoceanic
Wed 09:38:00 AM 57.4896 -36.1138 259° West 457 526 43,000  Level FlightAware Transoceanic
Wed 09:39:00 AM 57.4641 -36.3451 258° West 457 526 43,000  Level FlightAware Transoceanic
Wed 09:40:00 AM 57.4383 -36.5762 258° West 457 526 43,000  Level FlightAware Transoceanic
Wed 09:41:00 AM 57.4119 -36.8069 258° West 457 526 43,000  Level FlightAware Transoceanic
Wed 09:42:00 AM 57.3852 -37.0373 258° West 457 526 43,000  Level FlightAware Transoceanic
Wed 09:43:00 AM 57.3581 -37.2673 258° West 457 526 43,000  Level FlightAware Transoceanic
Wed 09:44:00 AM 57.3305 -37.4971 257° West 457 526 43,000  Level FlightAware Transoceanic
Wed 09:45:00 AM 57.3025 -37.7264 257° West 457 526 43,000  Level FlightAware Transoceanic
Wed 09:46:00 AM 57.2741 -37.9554 257° West 457 526 43,000  Level FlightAware Transoceanic
Wed 09:47:00 AM 57.2453 -38.1841 257° West 457 526 43,000  Level FlightAware Transoceanic
Wed 09:48:00 AM 57.2161 -38.4124 257° West 457 526 43,000  Level FlightAware Transoceanic
Wed 09:49:00 AM 57.1865 -38.6403 256° West 457 526 43,000  Level FlightAware Transoceanic
Wed 09:50:00 AM 57.1564 -38.8679 256° West 457 526 43,000  Level FlightAware Transoceanic
Wed 09:51:00 AM 57.1259 -39.0950 256° West 457 526 43,000  Level FlightAware Transoceanic
Wed 09:52:00 AM 57.0951 -39.3218 256° West 457 526 43,000  Level FlightAware Transoceanic
Wed 09:53:00 AM 57.0638 -39.5483 256° West 457 526 43,000  Level FlightAware Transoceanic
Wed 09:54:00 AM 57.0321 -39.7743 255° West 457 526 43,000  Level FlightAware Transoceanic
Wed 09:55:00 AM 57.0007 -39.9949 255° West  Level FlightAware Approximate
Wed 09:55:50 AM 57.0000 -40.0000 255° West 474 545 43,000  Level ETMS Enhanced Traffic Management System
Wed 09:56:00 AM 56.9688 -40.2149 255° West  Level FlightAware Approximate
Wed 09:57:00 AM 56.9682 -40.2091 255° West  Level FlightAware Approximate
Wed 09:58:00 AM 56.9346 -40.4281 254° West  Level FlightAware Approximate
Wed 09:59:00 AM 56.9005 -40.6467 254° West  Level FlightAware Approximate
Wed 10:00:00 AM 56.8660 -40.8649 254° West  Level FlightAware Approximate
Wed 10:01:00 AM 56.7811 -41.3915 253° West 474 545 43,000  Level FlightAware Transoceanic
Wed 10:02:00 AM 56.7431 -41.6218 253° West 474 545 43,000  Level FlightAware Transoceanic
Wed 10:03:00 AM 56.7047 -41.8516 253° West 474 545 43,000  Level FlightAware Transoceanic
Wed 10:04:00 AM 56.6659 -42.0810 253° West 474 545 43,000  Level FlightAware Transoceanic
Wed 10:05:00 AM 56.6266 -42.3099 253° West 474 545 43,000  Level FlightAware Transoceanic
Wed 10:06:00 AM 56.5869 -42.5383 252° West 474 545 43,000  Level FlightAware Transoceanic
Wed 10:07:00 AM 56.5469 -42.7662 252° West 474 545 43,000  Level FlightAware Transoceanic
Wed 10:08:00 AM 56.5064 -42.9937 252° West 474 545 43,000  Level FlightAware Transoceanic
Wed 10:09:00 AM 56.4654 -43.2207 252° West 474 545 43,000  Level FlightAware Transoceanic
Wed 10:10:00 AM 56.4241 -43.4471 252° West 474 545 43,000  Level FlightAware Transoceanic
Wed 10:11:00 AM 56.3824 -43.6731 251° West 474 545 43,000  Level FlightAware Transoceanic
Wed 10:12:00 AM 56.3402 -43.8986 251° West 474 545 43,000  Level FlightAware Transoceanic
Wed 10:13:00 AM 56.2977 -44.1236 251° West 474 545 43,000  Level FlightAware Transoceanic
Wed 10:14:00 AM 56.2547 -44.3480 251° West 474 545 43,000  Level FlightAware Transoceanic
Wed 10:15:00 AM 56.2113 -44.5720 251° West 474 545 43,000  Level FlightAware Transoceanic
Wed 10:16:00 AM 56.1675 -44.7955 251° West 474 545 43,000  Level FlightAware Transoceanic
Wed 10:17:00 AM 56.1234 -45.0184 250° West 474 545 43,000  Level FlightAware Transoceanic
Wed 10:18:00 AM 56.0788 -45.2409 250° West 474 545 43,000  Level FlightAware Transoceanic
Wed 10:19:00 AM 56.0338 -45.4628 250° West 474 545 43,000  Level FlightAware Transoceanic
Wed 10:20:00 AM 55.9884 -45.6842 250° West 474 545 43,000  Level FlightAware Transoceanic
Wed 10:21:00 AM 55.9427 -45.9051 250° West 474 545 43,000  Level FlightAware Transoceanic
Wed 10:22:00 AM 55.8965 -46.1254 249° West 474 545 43,000  Level FlightAware Transoceanic
Wed 10:23:00 AM 55.8499 -46.3453 249° West 474 545 43,000  Level FlightAware Transoceanic
Wed 10:24:00 AM 55.8030 -46.5646 249° West 474 545 43,000  Level FlightAware Transoceanic
Wed 10:25:00 AM 55.7557 -46.7834 249° West 474 545 43,000  Level FlightAware Transoceanic
Wed 10:26:00 AM 55.7079 -47.0016 249° West 474 545 43,000  Level FlightAware Transoceanic
Wed 10:27:00 AM 55.6598 -47.2193 249° West 474 545 43,000  Level FlightAware Transoceanic
Wed 10:28:00 AM 55.6113 -47.4365 248° West 474 545 43,000  Level FlightAware Transoceanic
Wed 10:29:00 AM 55.5625 -47.6531 248° West 474 545 43,000  Level FlightAware Transoceanic
Wed 10:30:00 AM 55.5132 -47.8692 248° West 474 545 43,000  Level FlightAware Transoceanic
Wed 10:31:00 AM 55.4636 -48.0847 248° West 474 545 43,000  Level FlightAware Transoceanic
Wed 10:32:00 AM 55.4135 -48.2997 248° West 474 545 43,000  Level FlightAware Transoceanic
Wed 10:33:00 AM 55.3631 -48.5142 247° West 474 545 43,000  Level FlightAware Transoceanic
Wed 10:34:00 AM 55.3124 -48.7281 247° West 474 545 43,000  Level FlightAware Transoceanic
Wed 10:35:00 AM 55.2612 -48.9415 247° West 474 545 43,000  Level FlightAware Transoceanic
Wed 10:36:00 AM 55.2097 -49.1543 247° West 474 545 43,000  Level FlightAware Transoceanic
Wed 10:37:00 AM 55.1578 -49.3666 247° West 474 545 43,000  Level FlightAware Transoceanic
Wed 10:38:00 AM 55.1056 -49.5783 247° West 474 545 43,000  Level FlightAware Transoceanic
Wed 10:39:00 AM 55.0530 -49.7894 246° West 474 545 43,000  Level FlightAware Transoceanic
Wed 10:40:00 AM 55.0031 -49.9876 246° West  Level FlightAware Approximate
Wed 10:41:00 AM 54.9530 -50.1854 246° West  Level FlightAware Approximate
Wed 10:42:00 AM 54.9638 -50.1784 251° West  Level FlightAware Approximate
Wed 10:42:00 AM 55.0000 -50.0000 251° West 446 513 43,000  Level ETMS Enhanced Traffic Management System
Wed 10:43:00 AM 54.9222 -50.3819 250° West  Level FlightAware Approximate
Wed 10:44:00 AM 54.8802 -50.5850 250° West  Level FlightAware Approximate
Wed 10:45:00 AM 54.8378 -50.7876 250° West  Level FlightAware Approximate
Wed 10:46:00 AM 54.7952 -50.9898 250° West  Level FlightAware Approximate
Wed 10:47:00 AM 54.7521 -51.1916 250° West  Level FlightAware Approximate
Wed 10:48:00 AM 54.6596 -51.6191 249° West 446 513 43,000  Level FlightAware Transoceanic
Wed 10:49:00 AM 54.6156 -51.8195 249° West 446 513 43,000  Level FlightAware Transoceanic
Wed 10:50:00 AM 54.5712 -52.0196 249° West 446 513 43,000  Level FlightAware Transoceanic
Wed 10:51:00 AM 54.5265 -52.2192 249° West 446 513 43,000  Level FlightAware Transoceanic
Wed 10:52:00 AM 54.4814 -52.4183 249° West 446 513 43,000  Level FlightAware Transoceanic
Wed 10:53:00 AM 54.4361 -52.6170 248° West 446 513 43,000  Level FlightAware Transoceanic
Wed 10:54:00 AM 54.3904 -52.8153 248° West 446 513 43,000  Level FlightAware Transoceanic
Wed 10:55:00 AM 54.3444 -53.0131 248° West 446 513 43,000  Level FlightAware Transoceanic
Wed 10:56:00 AM 54.2980 -53.2105 248° West 446 513 43,000  Level FlightAware Transoceanic
Wed 10:57:00 AM 54.2514 -53.4074 248° West 446 513 43,000  Level FlightAware Transoceanic
Wed 10:58:00 AM 54.2044 -53.6039 248° West 446 513 43,000  Level FlightAware Transoceanic
Wed 10:59:00 AM 54.1571 -53.7999 248° West 446 513 43,000  Level FlightAware Transoceanic
Wed 11:00:00 AM 54.1095 -53.9955 247° West 446 513 43,000  Level FlightAware Transoceanic
Wed 11:01:00 AM 54.0615 -54.1906 247° West 446 513 43,000  Level FlightAware Transoceanic
Wed 11:01:23 AM 54.0500 -54.1833 251° West 460 529 43,000  Level Gander Center
Wed 11:02:00 AM 54.0133 -54.3853 247° West 446 513 43,000  Level FlightAware Transoceanic
Wed 11:02:23 AM 53.9833 -54.4000 242° Southwest 460 529 43,000  Level Gander Center
Wed 11:03:00 AM 53.9647 -54.5796 247° West 446 513 43,000  Level FlightAware Transoceanic
Wed 11:03:23 AM 53.9500 -54.5667 251° West 450 518 43,000  Level Gander Center
Wed 11:04:00 AM 53.9159 -54.7733 247° West 446 513 43,000  Level FlightAware Transoceanic
Wed 11:04:23 AM 53.8833 -54.7833 243° Southwest 460 529 43,000  Level Gander Center
Wed 11:05:00 AM 53.8667 -54.9666 247° West  Level FlightAware Approximate
Wed 11:05:23 AM 53.8000 -54.9333 227° Southwest 470 541 43,000  Level Gander Center
Wed 11:06:00 AM 53.8266 -55.1657 251° West  Level FlightAware Approximate
Wed 11:06:23 AM 53.7167 -55.1167 233° Southwest 460 529 43,000  Level Gander Center
Wed 11:07:01 AM 53.6667 -55.2167 230° Southwest 460 529 43,000  Level Moncton Center
Wed 11:08:23 AM 53.5500 -55.4500 230° Southwest 460 529 43,000  Level Gander Center
Wed 11:09:23 AM 53.4833 -55.6333 239° Southwest 460 529 43,000  Level Gander Center
Wed 11:10:23 AM 53.3833 -55.7833 222° Southwest 470 541 43,000  Level Gander Center
Wed 11:11:01 AM 53.3500 -55.9000 244° Southwest 460 529 43,000  Level Moncton Center
Wed 11:12:01 AM 53.2500 -56.0500 222° Southwest 470 541 43,000  Level Moncton Center
Wed 11:12:52 AM 53.1833 -56.2000 233° Southwest 460 529 43,000  Level Gander Center
Wed 11:13:52 AM 53.1000 -56.3833 233° Southwest 460 529 43,000  Level Gander Center
Wed 11:14:52 AM 53.0167 -56.5333 227° Southwest 460 529 43,000  Level Gander Center
Wed 11:15:52 AM 52.9167 -56.7000 225° Southwest 470 541 43,000  Level Gander Center
Wed 11:16:23 AM 52.9000 -56.7667 248° West 470 541 43,000  Level Gander Center
Wed 11:17:01 AM 52.8333 -56.8833 227° Southwest 470 541 43,000  Level Moncton Center
Wed 11:18:01 AM 52.7500 -57.0333 227° Southwest 470 541 43,000  Level Moncton Center
Wed 11:18:52 AM 52.6667 -57.1667 224° Southwest 470 541 43,000  Level Gander Center
Wed 11:19:52 AM 52.6000 -57.3500 239° Southwest 460 529 43,000  Level Gander Center
Wed 11:20:23 AM 52.5500 -57.4333 225° Southwest 470 541 43,000  Level Gander Center
Wed 11:21:23 AM 52.4667 -57.5833 228° Southwest 470 541 43,000  Level Gander Center
Wed 11:22:23 AM 52.3667 -57.7500 226° Southwest 470 541 43,000  Level Gander Center
Wed 11:23:23 AM 52.3000 -57.8833 231° Southwest 470 541 43,000  Level Gander Center
Wed 11:24:01 AM 52.2333 -58.0000 227° Southwest 470 541 43,000  Level Moncton Center
Wed 11:25:01 AM 52.1500 -58.1500 228° Southwest 470 541 43,000  Level Moncton Center
Wed 11:26:01 AM 52.0667 -58.3167 231° Southwest 460 529 43,000  Level Moncton Center
Wed 11:26:52 AM 51.9833 -58.4500 225° Southwest 460 529 43,000  Level Gander Center
Wed 11:27:23 AM 51.9500 -58.5500 242° Southwest 470 541 43,000  Level Gander Center
Wed 11:28:23 AM 51.8667 -58.6833 225° Southwest 470 541 43,000  Level Gander Center
Wed 11:29:01 AM 51.8000 -58.8000 227° Southwest 470 541 43,000  Level Moncton Center
Wed 11:30:01 AM 51.7167 -58.9333 225° Southwest 470 541 43,000  Level Moncton Center
Wed 11:31:01 AM 51.6167 -59.1167 229° Southwest 480 552 43,000  Level Moncton Center
Wed 11:31:52 AM 51.5333 -59.2333 221° Southwest 480 552 43,000  Level Gander Center
Wed 11:32:23 AM 51.5000 -59.3167 237° Southwest 470 541 43,000  Level Gander Center
Wed 11:33:01 AM 51.4500 -59.4333 236° Southwest 470 541 43,000  Level Moncton Center
Wed 11:34:01 AM 51.3500 -59.5667 220° Southwest 470 541 43,000  Level Moncton Center
Wed 11:35:01 AM 51.2500 -59.7167 223° Southwest 470 541 43,000  Level Moncton Center
Wed 11:36:01 AM 51.1833 -59.8833 238° Southwest 470 541 43,000  Level Moncton Center
Wed 11:37:01 AM 51.0833 -60.0333 223° Southwest 470 541 43,000  Level Moncton Center
Wed 11:38:01 AM 51.0000 -60.1667 225° Southwest 470 541 43,000  Level Moncton Center
Wed 11:39:01 AM 50.9167 -60.3333 232° Southwest 470 541 43,000  Level Moncton Center
Wed 11:40:01 AM 50.8167 -60.4833 223° Southwest 470 541 43,000  Level Moncton Center
Wed 11:41:01 AM 50.7167 -60.6500 227° Southwest 460 529 43,000  Level Moncton Center
Wed 11:42:01 AM 50.6333 -60.7833 225° Southwest 470 541 43,000  Level Moncton Center
Wed 11:43:01 AM 50.5500 -60.9167 225° Southwest 470 541 43,000  Level Moncton Center
Wed 11:44:01 AM 50.4667 -61.0500 226° Southwest 460 529 43,000  Level Moncton Center
Wed 11:45:01 AM 50.3667 -61.2167 227° Southwest 460 529 43,000  Level Moncton Center
Wed 11:46:01 AM 50.2833 -61.3500 226° Southwest 460 529 43,000  Level Moncton Center
Wed 11:47:01 AM 50.2000 -61.5000 229° Southwest 460 529 43,000  Level Moncton Center
Wed 11:48:01 AM 50.1000 -61.6500 224° Southwest 460 529 43,000  Level Moncton Center
Wed 11:49:01 AM 50.0167 -61.7833 226° Southwest 460 529 43,000  Level Moncton Center
Wed 11:50:01 AM 49.9167 -61.9333 224° Southwest 460 529 43,000  Level Moncton Center
Wed 11:51:01 AM 49.8333 -62.0667 226° Southwest 460 529 43,000  Level Moncton Center
Wed 11:52:01 AM 49.7333 -62.2167 224° Southwest 460 529 43,000  Level Moncton Center
Wed 11:53:23 AM 49.6167 -62.4167 228° Southwest 460 529 43,000  Level Gander Center
Wed 11:54:23 AM 49.5333 -62.5500 226° Southwest 460 529 43,000  Level Gander Center
Wed 11:55:23 AM 49.4500 -62.6667 222° Southwest 460 529 43,000  Level Gander Center
Wed 11:56:01 AM 49.3833 -62.7500 219° Southwest 460 529 43,000  Level Moncton Center
Wed 11:57:01 AM 49.3000 -62.9000 230° Southwest 450 518 43,000  Level Moncton Center
Wed 11:58:01 AM 49.2000 -63.0333 221° Southwest 450 518 43,000  Level Moncton Center
Wed 11:59:01 AM 49.1167 -63.1667 226° Southwest 450 518 43,000  Level Moncton Center
Wed 12:00:01 PM 49.0167 -63.3000 221° Southwest 450 518 43,000  Level Moncton Center
Wed 12:01:01 PM 48.9333 -63.4500 230° Southwest 450 518 43,000  Level Moncton Center
Wed 12:02:01 PM 48.8500 -63.5833 227° Southwest 450 518 43,000  Level Moncton Center
Wed 12:03:01 PM 48.7500 -63.7167 221° Southwest 450 518 43,000  Level Moncton Center
Wed 12:04:01 PM 48.6500 -63.8333 218° Southwest 450 518 43,000  Level Moncton Center
Wed 12:05:01 PM 48.5667 -63.9667 227° Southwest 450 518 43,000  Level Moncton Center
Wed 12:06:01 PM 48.4833 -64.1000 227° Southwest 440 506 43,000  Level Moncton Center
Wed 12:07:01 PM 48.3833 -64.2167 218° Southwest 450 518 43,000  Level Moncton Center
Wed 12:08:01 PM 48.3000 -64.3500 227° Southwest 450 518 43,000  Level Moncton Center
Wed 12:09:01 PM 48.2167 -64.4667 223° Southwest 450 518 43,000  Level Moncton Center
Wed 12:10:01 PM 48.1333 -64.6000 227° Southwest 440 506 43,000  Level Moncton Center
Wed 12:11:01 PM 48.0333 -64.7167 218° Southwest 430 495 43,000  Level Moncton Center
Wed 12:12:01 PM 47.9500 -64.8500 227° Southwest 430 495 43,000  Level Moncton Center
Wed 12:13:01 PM 47.8667 -64.9667 223° Southwest 440 506 43,000  Level Moncton Center
Wed 12:14:01 PM 47.7667 -65.1000 222° Southwest 440 506 43,000  Level Moncton Center
Wed 12:15:01 PM 47.6833 -65.2167 223° Southwest 440 506 43,000  Level Moncton Center
Wed 12:16:01 PM 47.6000 -65.3333 223° Southwest 440 506 43,000  Level Moncton Center
Wed 12:17:01 PM 47.5167 -65.4667 227° Southwest 440 506 43,000  Level Moncton Center
Wed 12:18:01 PM 47.4167 -65.5833 218° Southwest 440 506 43,000  Level Moncton Center
Wed 12:19:01 PM 47.3167 -65.7000 218° Southwest 440 506 43,000  Level Moncton Center
Wed 12:20:01 PM 47.2333 -65.8333 227° Southwest 440 506 43,000  Level Moncton Center
Wed 12:21:01 PM 47.1333 -65.9500 218° Southwest 440 506 43,000  Level Moncton Center
Wed 12:22:01 PM 47.0500 -66.0667 224° Southwest 430 495 43,000  Level Moncton Center
Wed 12:23:01 PM 46.9667 -66.1833 224° Southwest 430 495 43,000 -550 Level Moncton Center
Wed 12:24:01 PM 46.8833 -66.3000 224° Southwest 430 495 41,900 -1,250 Descending Moncton Center
Wed 12:25:01 PM 46.8000 -66.4333 228° Southwest 410 472 40,500 -1,500 Descending Moncton Center
Wed 12:26:01 PM 46.7167 -66.5500 224° Southwest 410 472 38,900 -1,500 Descending Moncton Center
Wed 12:27:01 PM 46.6167 -66.6333 210° Southwest 400 460 37,500 -1,450 Descending Moncton Center
Wed 12:28:01 PM 46.5333 -66.7500 224° Southwest 410 472 36,000 -1,500 Descending Moncton Center
Wed 12:29:01 PM 46.4500 -66.8667 224° Southwest 420 483 34,500 -1,500 Descending Moncton Center
Wed 12:30:01 PM 46.3667 -66.9667 220° Southwest 420 483 33,000 -1,550 Descending Moncton Center
Wed 12:31:01 PM 46.2833 -67.1167 231° Southwest 430 495 31,400 -1,550 Descending Moncton Center
Wed 12:32:01 PM 46.1833 -67.2000 210° Southwest 430 495 29,900 -1,600 Descending Moncton Center
Wed 12:33:01 PM 46.0833 -67.3333 223° Southwest 450 518 28,200 -1,700 Descending Moncton Center
Wed 12:34:01 PM 46.0000 -67.4500 224° Southwest 440 506 26,500 -1,750 Descending Moncton Center
Wed 12:35:01 PM 45.9000 -67.5667 219° Southwest 440 506 24,700 -1,750 Descending Moncton Center
Wed 12:36:01 PM 45.8167 -67.6833 224° Southwest 430 495 23,000 -1,850 Descending Moncton Center
Wed 12:37:01 PM 45.7167 -67.7833 215° Southwest 420 483 21,000 -2,050 Descending Moncton Center
Wed 12:38:01 PM 45.6333 -67.8833 220° Southwest 410 472 18,900 -1,900 Descending Moncton Center
Wed 12:39:01 PM 45.5500 -67.9833 220° Southwest 410 472 17,200 -1,950 Descending Moncton Center
Wed 12:40:01 PM 45.4667 -68.1000 224° Southwest 390 449 15,000 -1,981 Descending Moncton Center
Wed 12:40:44 PM 45.4386 -68.1594 236° Southwest 406 467 13,800 -1,981 Descending Boston Center
Wed 12:41:44 PM 45.3608 -68.2539 220° Southwest 394 453 11,600 -1,950 Descending Boston Center
Wed 12:42:44 PM 45.2908 -68.3386 220° Southwest 368 423 9,900 -1,350 Descending Boston Center
Wed 12:43:44 PM 45.2217 -68.3908 208° Southwest 320 368 8,900 -1,150 Descending Boston Center
Wed 12:44:44 PM 45.1503 -68.4339 203° Southwest 291 335 7,600 -1,250 Descending Boston Center
Wed 12:45:44 PM 45.0831 -68.4800 206° Southwest 279 321 6,400 -1,200 Descending Boston Center
Wed 12:46:44 PM 45.0139 -68.5228 204° Southwest 274 315 5,200 -1,200 Descending Boston Center
Wed 12:47:44 PM 44.9486 -68.5653 205° Southwest 269 310 4,000 -600 Descending Boston Center
Wed 12:48:44 PM 44.8853 -68.6047 204° Southwest 264 304 4,000  Level Boston Center
Wed 12:49:44 PM 44.8219 -68.6469 205° Southwest 258 297 4,000  Level Boston Center
Wed 12:50:44 PM 44.7689 -68.6794 204° Southwest 242 278 4,000 -300 Level Boston Center
Wed 12:51:44 PM 44.7292 -68.6761 177° South 213 245 3,400 -700 Descending Boston Center
Wed 12:52:44 PM 44.7544 -68.6833 349° North 34 39 2,600 -800 Descending Boston Center
Wed 12:53:44 PM 44.7481 -68.7422 261° West 88 101 1,800 -700 Descending Boston Center
Wed 12:54:44 PM 44.7656 -68.7733 308° West 111 128 1,200 -750 Descending Boston Center
Wed 12:55:44 PM 44.7961 -68.8125 318° Northwest 122 140 300 -900 Descending Boston Center

Login

Don't have an account? Register now (free) for customized features, flight alerts, and more!